sensor_id;sensor_type;location;lat;lon;timestamp;P1;durP1;ratioP1;P2;durP2;ratioP2
19525;SDS011;9907;42.676;26.348;2022-10-18T00:00:35;4.53;;;3.97;;
19525;SDS011;9907;42.676;26.348;2022-10-18T00:03:00;3.67;;;3.37;;
19525;SDS011;9907;42.676;26.348;2022-10-18T00:05:26;4.40;;;3.33;;
19525;SDS011;9907;42.676;26.348;2022-10-18T00:07:51;6.90;;;3.70;;
19525;SDS011;9907;42.676;26.348;2022-10-18T00:10:17;4.50;;;3.97;;
19525;SDS011;9907;42.676;26.348;2022-10-18T00:12:42;6.17;;;4.20;;
19525;SDS011;9907;42.676;26.348;2022-10-18T00:15:08;4.53;;;3.60;;
19525;SDS011;9907;42.676;26.348;2022-10-18T00:17:35;4.87;;;3.77;;
19525;SDS011;9907;42.676;26.348;2022-10-18T00:20:02;6.27;;;4.43;;
19525;SDS011;9907;42.676;26.348;2022-10-18T00:22:29;4.83;;;3.80;;
19525;SDS011;9907;42.676;26.348;2022-10-18T00:24:55;6.33;;;3.80;;
19525;SDS011;9907;42.676;26.348;2022-10-18T00:27:21;4.43;;;3.90;;
19525;SDS011;9907;42.676;26.348;2022-10-18T00:29:46;4.60;;;3.80;;
19525;SDS011;9907;42.676;26.348;2022-10-18T00:32:12;4.70;;;3.33;;
19525;SDS011;9907;42.676;26.348;2022-10-18T00:34:38;4.90;;;3.40;;
19525;SDS011;9907;42.676;26.348;2022-10-18T00:37:04;4.40;;;3.30;;
19525;SDS011;9907;42.676;26.348;2022-10-18T00:39:30;5.53;;;3.83;;
19525;SDS011;9907;42.676;26.348;2022-10-18T00:41:56;6.40;;;3.73;;
19525;SDS011;9907;42.676;26.348;2022-10-18T00:46:50;4.73;;;3.50;;
19525;SDS011;9907;42.676;26.348;2022-10-18T00:49:21;7.30;;;3.70;;
19525;SDS011;9907;42.676;26.348;2022-10-18T00:51:55;3.63;;;3.30;;
19525;SDS011;9907;42.676;26.348;2022-10-18T00:54:23;5.33;;;2.93;;
19525;SDS011;9907;42.676;26.348;2022-10-18T00:56:50;4.00;;;3.10;;
19525;SDS011;9907;42.676;26.348;2022-10-18T00:59:16;3.97;;;3.57;;
19525;SDS011;9907;42.676;26.348;2022-10-18T01:01:43;3.80;;;3.40;;
19525;SDS011;9907;42.676;26.348;2022-10-18T01:04:09;3.37;;;2.87;;
19525;SDS011;9907;42.676;26.348;2022-10-18T01:06:42;4.57;;;3.37;;
19525;SDS011;9907;42.676;26.348;2022-10-18T01:12:30;3.63;;;2.80;;
19525;SDS011;9907;42.676;26.348;2022-10-18T01:32:22;5.00;;;3.07;;
19525;SDS011;9907;42.676;26.348;2022-10-18T01:34:54;6.43;;;3.57;;
19525;SDS011;9907;42.676;26.348;2022-10-18T01:37:25;5.13;;;3.40;;
19525;SDS011;9907;42.676;26.348;2022-10-18T01:39:53;4.47;;;3.20;;
19525;SDS011;9907;42.676;26.348;2022-10-18T01:42:22;4.07;;;3.20;;
19525;SDS011;9907;42.676;26.348;2022-10-18T01:44:49;3.87;;;3.33;;
19525;SDS011;9907;42.676;26.348;2022-10-18T01:47:16;4.97;;;3.37;;
19525;SDS011;9907;42.676;26.348;2022-10-18T01:49:43;5.00;;;3.47;;
19525;SDS011;9907;42.676;26.348;2022-10-18T01:52:12;7.77;;;4.00;;
19525;SDS011;9907;42.676;26.348;2022-10-18T01:54:40;5.10;;;3.87;;
19525;SDS011;9907;42.676;26.348;2022-10-18T02:00:13;6.97;;;3.97;;
19525;SDS011;9907;42.676;26.348;2022-10-18T02:08:45;6.90;;;3.70;;
19525;SDS011;9907;42.676;26.348;2022-10-18T02:11:04;3.90;;;3.37;;
19525;SDS011;9907;42.676;26.348;2022-10-18T02:13:36;4.23;;;3.47;;
19525;SDS011;9907;42.676;26.348;2022-10-18T02:22:04;6.03;;;3.80;;
19525;SDS011;9907;42.676;26.348;2022-10-18T02:24:33;4.23;;;3.60;;
19525;SDS011;9907;42.676;26.348;2022-10-18T02:27:02;5.53;;;3.57;;
19525;SDS011;9907;42.676;26.348;2022-10-18T02:29:28;4.50;;;3.30;;
19525;SDS011;9907;42.676;26.348;2022-10-18T02:31:58;5.43;;;3.70;;
19525;SDS011;9907;42.676;26.348;2022-10-18T02:34:42;5.33;;;3.70;;
19525;SDS011;9907;42.676;26.348;2022-10-18T02:37:17;5.13;;;3.57;;
19525;SDS011;9907;42.676;26.348;2022-10-18T02:39:45;6.40;;;3.40;;
19525;SDS011;9907;42.676;26.348;2022-10-18T02:42:14;4.17;;;3.60;;
19525;SDS011;9907;42.676;26.348;2022-10-18T02:44:40;4.10;;;3.50;;
19525;SDS011;9907;42.676;26.348;2022-10-18T02:47:06;4.73;;;3.40;;
19525;SDS011;9907;42.676;26.348;2022-10-18T02:49:34;5.00;;;3.07;;
19525;SDS011;9907;42.676;26.348;2022-10-18T02:51:59;4.47;;;3.97;;
19525;SDS011;9907;42.676;26.348;2022-10-18T02:54:25;4.70;;;3.20;;
19525;SDS011;9907;42.676;26.348;2022-10-18T02:56:50;5.17;;;4.03;;
19525;SDS011;9907;42.676;26.348;2022-10-18T02:59:16;4.37;;;3.70;;
19525;SDS011;9907;42.676;26.348;2022-10-18T03:01:41;4.47;;;3.90;;
19525;SDS011;9907;42.676;26.348;2022-10-18T03:04:07;5.03;;;3.73;;
19525;SDS011;9907;42.676;26.348;2022-10-18T03:06:33;5.77;;;3.60;;
19525;SDS011;9907;42.676;26.348;2022-10-18T03:09:00;6.07;;;3.47;;
19525;SDS011;9907;42.676;26.348;2022-10-18T03:11:26;6.73;;;3.70;;
19525;SDS011;9907;42.676;26.348;2022-10-18T03:13:52;4.87;;;3.57;;
19525;SDS011;9907;42.676;26.348;2022-10-18T03:16:17;5.03;;;3.70;;
19525;SDS011;9907;42.676;26.348;2022-10-18T03:18:43;6.70;;;3.77;;
19525;SDS011;9907;42.676;26.348;2022-10-18T03:21:08;5.63;;;3.97;;
19525;SDS011;9907;42.676;26.348;2022-10-18T03:23:34;4.90;;;3.83;;
19525;SDS011;9907;42.676;26.348;2022-10-18T03:26:00;7.80;;;4.23;;
19525;SDS011;9907;42.676;26.348;2022-10-18T03:28:26;6.33;;;4.20;;
19525;SDS011;9907;42.676;26.348;2022-10-18T03:30:51;6.80;;;5.70;;
19525;SDS011;9907;42.676;26.348;2022-10-18T03:33:17;5.37;;;4.10;;
19525;SDS011;9907;42.676;26.348;2022-10-18T03:35:42;7.07;;;3.90;;
19525;SDS011;9907;42.676;26.348;2022-10-18T03:38:08;5.90;;;4.50;;
19525;SDS011;9907;42.676;26.348;2022-10-18T03:40:33;9.07;;;4.00;;
19525;SDS011;9907;42.676;26.348;2022-10-18T03:42:59;5.10;;;3.90;;
19525;SDS011;9907;42.676;26.348;2022-10-18T03:45:24;7.53;;;4.40;;
19525;SDS011;9907;42.676;26.348;2022-10-18T03:47:50;9.07;;;4.80;;
19525;SDS011;9907;42.676;26.348;2022-10-18T03:50:16;9.20;;;4.70;;
19525;SDS011;9907;42.676;26.348;2022-10-18T03:52:41;10.67;;;4.70;;
19525;SDS011;9907;42.676;26.348;2022-10-18T03:55:07;12.77;;;4.90;;
19525;SDS011;9907;42.676;26.348;2022-10-18T03:57:32;5.43;;;4.70;;
19525;SDS011;9907;42.676;26.348;2022-10-18T03:59:58;7.63;;;5.13;;
19525;SDS011;9907;42.676;26.348;2022-10-18T04:02:23;8.87;;;5.07;;
19525;SDS011;9907;42.676;26.348;2022-10-18T04:04:50;8.97;;;6.23;;
19525;SDS011;9907;42.676;26.348;2022-10-18T04:07:16;9.77;;;5.93;;
19525;SDS011;9907;42.676;26.348;2022-10-18T04:09:41;7.93;;;6.70;;
19525;SDS011;9907;42.676;26.348;2022-10-18T04:12:07;6.60;;;5.80;;
19525;SDS011;9907;42.676;26.348;2022-10-18T04:14:32;12.43;;;5.83;;
19525;SDS011;9907;42.676;26.348;2022-10-18T04:16:59;11.40;;;6.17;;
19525;SDS011;9907;42.676;26.348;2022-10-18T04:19:25;8.33;;;5.63;;
19525;SDS011;9907;42.676;26.348;2022-10-18T04:21:51;12.63;;;5.63;;
19525;SDS011;9907;42.676;26.348;2022-10-18T04:24:17;10.80;;;5.50;;
19525;SDS011;9907;42.676;26.348;2022-10-18T04:26:43;13.57;;;5.07;;
19525;SDS011;9907;42.676;26.348;2022-10-18T04:29:08;10.93;;;5.60;;
19525;SDS011;9907;42.676;26.348;2022-10-18T04:31:34;8.40;;;5.07;;
19525;SDS011;9907;42.676;26.348;2022-10-18T04:33:59;6.60;;;4.73;;
19525;SDS011;9907;42.676;26.348;2022-10-18T04:36:26;9.93;;;5.40;;
19525;SDS011;9907;42.676;26.348;2022-10-18T04:38:51;7.30;;;5.37;;
19525;SDS011;9907;42.676;26.348;2022-10-18T04:41:17;6.97;;;5.53;;
19525;SDS011;9907;42.676;26.348;2022-10-18T04:43:42;8.57;;;5.20;;
19525;SDS011;9907;42.676;26.348;2022-10-18T04:46:08;10.03;;;4.50;;
19525;SDS011;9907;42.676;26.348;2022-10-18T04:48:33;10.37;;;5.17;;
19525;SDS011;9907;42.676;26.348;2022-10-18T04:50:58;8.63;;;5.10;;
19525;SDS011;9907;42.676;26.348;2022-10-18T04:53:24;14.40;;;6.30;;
19525;SDS011;9907;42.676;26.348;2022-10-18T04:55:49;9.93;;;5.70;;
19525;SDS011;9907;42.676;26.348;2022-10-18T04:58:18;6.17;;;4.90;;
19525;SDS011;9907;42.676;26.348;2022-10-18T05:00:44;9.80;;;5.30;;
19525;SDS011;9907;42.676;26.348;2022-10-18T05:03:10;10.90;;;4.70;;
19525;SDS011;9907;42.676;26.348;2022-10-18T05:05:37;8.77;;;4.33;;
19525;SDS011;9907;42.676;26.348;2022-10-18T05:08:02;6.23;;;4.40;;
19525;SDS011;9907;42.676;26.348;2022-10-18T05:10:28;8.03;;;4.40;;
19525;SDS011;9907;42.676;26.348;2022-10-18T05:12:54;8.53;;;4.10;;
19525;SDS011;9907;42.676;26.348;2022-10-18T05:15:19;6.50;;;3.60;;
19525;SDS011;9907;42.676;26.348;2022-10-18T05:17:45;13.03;;;5.60;;
19525;SDS011;9907;42.676;26.348;2022-10-18T05:20:10;8.30;;;4.80;;
19525;SDS011;9907;42.676;26.348;2022-10-18T05:22:36;10.63;;;4.53;;
19525;SDS011;9907;42.676;26.348;2022-10-18T05:25:01;6.30;;;4.43;;
19525;SDS011;9907;42.676;26.348;2022-10-18T05:27:27;7.17;;;4.43;;
19525;SDS011;9907;42.676;26.348;2022-10-18T05:29:53;4.67;;;3.30;;
19525;SDS011;9907;42.676;26.348;2022-10-18T05:32:18;7.60;;;3.93;;
19525;SDS011;9907;42.676;26.348;2022-10-18T05:34:44;7.33;;;4.57;;
19525;SDS011;9907;42.676;26.348;2022-10-18T05:37:09;9.03;;;4.20;;
19525;SDS011;9907;42.676;26.348;2022-10-18T05:39:35;7.43;;;4.60;;
19525;SDS011;9907;42.676;26.348;2022-10-18T05:42:01;11.23;;;5.33;;
19525;SDS011;9907;42.676;26.348;2022-10-18T05:44:27;23.50;;;18.30;;
19525;SDS011;9907;42.676;26.348;2022-10-18T05:46:52;6.13;;;4.80;;
19525;SDS011;9907;42.676;26.348;2022-10-18T05:49:18;6.07;;;4.70;;
19525;SDS011;9907;42.676;26.348;2022-10-18T05:51:43;8.77;;;4.13;;
19525;SDS011;9907;42.676;26.348;2022-10-18T05:54:10;4.87;;;3.40;;
19525;SDS011;9907;42.676;26.348;2022-10-18T05:56:36;8.77;;;4.10;;
19525;SDS011;9907;42.676;26.348;2022-10-18T05:59:02;4.37;;;3.67;;
19525;SDS011;9907;42.676;26.348;2022-10-18T06:01:36;6.40;;;3.70;;
19525;SDS011;9907;42.676;26.348;2022-10-18T06:04:05;10.83;;;3.60;;
19525;SDS011;9907;42.676;26.348;2022-10-18T06:06:31;9.13;;;4.30;;
19525;SDS011;9907;42.676;26.348;2022-10-18T06:08:57;5.67;;;4.50;;
19525;SDS011;9907;42.676;26.348;2022-10-18T06:11:23;7.07;;;4.37;;
19525;SDS011;9907;42.676;26.348;2022-10-18T06:13:50;7.90;;;4.93;;
19525;SDS011;9907;42.676;26.348;2022-10-18T06:16:17;6.20;;;4.03;;
19525;SDS011;9907;42.676;26.348;2022-10-18T06:18:48;7.40;;;4.60;;
19525;SDS011;9907;42.676;26.348;2022-10-18T06:21:15;6.80;;;3.77;;
19525;SDS011;9907;42.676;26.348;2022-10-18T06:23:41;4.50;;;3.30;;
19525;SDS011;9907;42.676;26.348;2022-10-18T06:26:08;20.87;;;9.77;;
19525;SDS011;9907;42.676;26.348;2022-10-18T06:28:35;9.27;;;4.83;;
19525;SDS011;9907;42.676;26.348;2022-10-18T06:31:02;5.67;;;3.60;;
19525;SDS011;9907;42.676;26.348;2022-10-18T06:33:29;5.57;;;3.90;;
19525;SDS011;9907;42.676;26.348;2022-10-18T06:35:59;6.20;;;3.47;;
19525;SDS011;9907;42.676;26.348;2022-10-18T06:38:27;6.33;;;3.40;;
19525;SDS011;9907;42.676;26.348;2022-10-18T06:40:53;3.70;;;3.23;;
19525;SDS011;9907;42.676;26.348;2022-10-18T06:46:13;6.53;;;3.67;;
19525;SDS011;9907;42.676;26.348;2022-10-18T06:48:41;4.33;;;3.10;;
19525;SDS011;9907;42.676;26.348;2022-10-18T06:51:07;6.93;;;3.63;;
19525;SDS011;9907;42.676;26.348;2022-10-18T06:53:33;8.00;;;3.50;;
19525;SDS011;9907;42.676;26.348;2022-10-18T06:56:04;4.47;;;3.57;;
19525;SDS011;9907;42.676;26.348;2022-10-18T06:58:35;6.10;;;3.40;;
19525;SDS011;9907;42.676;26.348;2022-10-18T07:01:05;8.17;;;3.50;;
19525;SDS011;9907;42.676;26.348;2022-10-18T07:03:34;5.27;;;3.77;;
19525;SDS011;9907;42.676;26.348;2022-10-18T07:06:01;7.27;;;4.03;;
19525;SDS011;9907;42.676;26.348;2022-10-18T07:08:27;10.63;;;5.57;;
19525;SDS011;9907;42.676;26.348;2022-10-18T07:10:53;8.03;;;4.10;;
19525;SDS011;9907;42.676;26.348;2022-10-18T07:13:19;7.43;;;3.47;;
19525;SDS011;9907;42.676;26.348;2022-10-18T07:15:46;6.50;;;3.10;;
19525;SDS011;9907;42.676;26.348;2022-10-18T07:18:11;3.93;;;3.00;;
19525;SDS011;9907;42.676;26.348;2022-10-18T07:20:37;3.37;;;2.77;;
19525;SDS011;9907;42.676;26.348;2022-10-18T07:23:02;5.03;;;3.03;;
19525;SDS011;9907;42.676;26.348;2022-10-18T07:25:29;4.53;;;3.30;;
19525;SDS011;9907;42.676;26.348;2022-10-18T07:30:54;5.07;;;3.40;;
19525;SDS011;9907;42.676;26.348;2022-10-18T07:33:20;4.40;;;3.17;;
19525;SDS011;9907;42.676;26.348;2022-10-18T07:35:46;5.30;;;3.20;;
19525;SDS011;9907;42.676;26.348;2022-10-18T07:38:12;9.50;;;3.60;;
19525;SDS011;9907;42.676;26.348;2022-10-18T07:40:37;6.43;;;3.80;;
19525;SDS011;9907;42.676;26.348;2022-10-18T07:43:03;6.27;;;3.77;;
19525;SDS011;9907;42.676;26.348;2022-10-18T07:45:28;9.23;;;4.63;;
19525;SDS011;9907;42.676;26.348;2022-10-18T07:47:57;9.40;;;5.60;;
19525;SDS011;9907;42.676;26.348;2022-10-18T07:50:23;9.43;;;3.90;;
19525;SDS011;9907;42.676;26.348;2022-10-18T07:52:48;9.83;;;4.07;;
19525;SDS011;9907;42.676;26.348;2022-10-18T07:55:14;6.53;;;3.93;;
19525;SDS011;9907;42.676;26.348;2022-10-18T07:57:39;9.00;;;5.03;;
19525;SDS011;9907;42.676;26.348;2022-10-18T08:00:05;8.43;;;4.00;;
19525;SDS011;9907;42.676;26.348;2022-10-18T08:02:32;7.70;;;3.70;;
19525;SDS011;9907;42.676;26.348;2022-10-18T08:04:58;8.33;;;3.50;;
19525;SDS011;9907;42.676;26.348;2022-10-18T08:07:23;5.97;;;3.30;;
19525;SDS011;9907;42.676;26.348;2022-10-18T08:09:49;5.17;;;3.23;;
19525;SDS011;9907;42.676;26.348;2022-10-18T08:12:14;6.77;;;3.07;;
19525;SDS011;9907;42.676;26.348;2022-10-18T08:14:40;9.23;;;3.30;;
19525;SDS011;9907;42.676;26.348;2022-10-18T08:17:06;6.30;;;2.97;;
19525;SDS011;9907;42.676;26.348;2022-10-18T08:19:31;7.07;;;3.83;;
19525;SDS011;9907;42.676;26.348;2022-10-18T08:21:57;5.53;;;3.77;;
19525;SDS011;9907;42.676;26.348;2022-10-18T08:24:22;10.67;;;3.87;;
19525;SDS011;9907;42.676;26.348;2022-10-18T08:26:48;5.90;;;3.40;;
19525;SDS011;9907;42.676;26.348;2022-10-18T08:29:14;6.57;;;3.43;;
19525;SDS011;9907;42.676;26.348;2022-10-18T08:31:39;3.70;;;2.80;;
19525;SDS011;9907;42.676;26.348;2022-10-18T08:34:05;4.13;;;3.03;;
19525;SDS011;9907;42.676;26.348;2022-10-18T08:36:30;8.47;;;2.90;;
19525;SDS011;9907;42.676;26.348;2022-10-18T08:38:56;5.17;;;3.37;;
19525;SDS011;9907;42.676;26.348;2022-10-18T08:46:41;6.67;;;2.90;;
19525;SDS011;9907;42.676;26.348;2022-10-18T08:49:14;6.37;;;2.80;;
19525;SDS011;9907;42.676;26.348;2022-10-18T08:51:55;6.47;;;3.23;;
19525;SDS011;9907;42.676;26.348;2022-10-18T08:57:01;6.67;;;2.70;;
19525;SDS011;9907;42.676;26.348;2022-10-18T08:59:33;5.13;;;2.60;;
19525;SDS011;9907;42.676;26.348;2022-10-18T09:07:07;4.07;;;2.70;;
19525;SDS011;9907;42.676;26.348;2022-10-18T09:10:11;5.43;;;3.27;;
19525;SDS011;9907;42.676;26.348;2022-10-18T09:20:52;4.77;;;2.87;;
19525;SDS011;9907;42.676;26.348;2022-10-18T09:23:23;3.43;;;2.37;;
19525;SDS011;9907;42.676;26.348;2022-10-18T09:26:05;4.90;;;2.47;;
19525;SDS011;9907;42.676;26.348;2022-10-18T09:28:53;3.87;;;2.90;;
19525;SDS011;9907;42.676;26.348;2022-10-18T09:32:10;3.20;;;2.37;;
19525;SDS011;9907;42.676;26.348;2022-10-18T09:37:48;2.40;;;2.00;;
19525;SDS011;9907;42.676;26.348;2022-10-18T09:40:19;5.60;;;2.40;;
19525;SDS011;9907;42.676;26.348;2022-10-18T09:45:34;4.67;;;2.00;;
19525;SDS011;9907;42.676;26.348;2022-10-18T09:50:55;3.63;;;1.50;;
19525;SDS011;9907;42.676;26.348;2022-10-18T09:56:04;3.87;;;2.30;;
19525;SDS011;9907;42.676;26.348;2022-10-18T09:58:43;2.20;;;2.00;;
19525;SDS011;9907;42.676;26.348;2022-10-18T10:01:20;4.03;;;2.17;;
19525;SDS011;9907;42.676;26.348;2022-10-18T10:03:50;3.13;;;1.83;;
19525;SDS011;9907;42.676;26.348;2022-10-18T10:09:05;1.93;;;1.80;;
19525;SDS011;9907;42.676;26.348;2022-10-18T10:11:38;3.60;;;1.67;;
19525;SDS011;9907;42.676;26.348;2022-10-18T10:14:18;2.73;;;2.20;;
19525;SDS011;9907;42.676;26.348;2022-10-18T10:19:21;2.90;;;1.53;;
19525;SDS011;9907;42.676;26.348;2022-10-18T10:21:51;2.70;;;2.10;;
19525;SDS011;9907;42.676;26.348;2022-10-18T10:24:22;5.97;;;2.00;;
19525;SDS011;9907;42.676;26.348;2022-10-18T10:27:17;4.20;;;2.73;;
19525;SDS011;9907;42.676;26.348;2022-10-18T10:29:54;3.00;;;1.97;;
19525;SDS011;9907;42.676;26.348;2022-10-18T10:32:22;2.30;;;1.80;;
19525;SDS011;9907;42.676;26.348;2022-10-18T10:34:49;2.50;;;1.70;;
19525;SDS011;9907;42.676;26.348;2022-10-18T10:40:03;2.40;;;1.70;;
19525;SDS011;9907;42.676;26.348;2022-10-18T10:42:30;2.97;;;1.90;;
19525;SDS011;9907;42.676;26.348;2022-10-18T10:44:57;5.13;;;3.87;;
19525;SDS011;9907;42.676;26.348;2022-10-18T10:47:27;5.47;;;2.97;;
19525;SDS011;9907;42.676;26.348;2022-10-18T10:49:57;1.87;;;1.77;;
19525;SDS011;9907;42.676;26.348;2022-10-18T10:52:23;2.80;;;2.43;;
19525;SDS011;9907;42.676;26.348;2022-10-18T10:54:52;3.13;;;2.37;;
19525;SDS011;9907;42.676;26.348;2022-10-18T10:57:23;5.33;;;2.53;;
19525;SDS011;9907;42.676;26.348;2022-10-18T10:59:52;2.80;;;2.00;;
19525;SDS011;9907;42.676;26.348;2022-10-18T11:02:32;3.93;;;1.80;;
19525;SDS011;9907;42.676;26.348;2022-10-18T11:07:57;3.93;;;2.10;;
19525;SDS011;9907;42.676;26.348;2022-10-18T11:10:27;2.13;;;1.93;;
19525;SDS011;9907;42.676;26.348;2022-10-18T11:13:02;2.60;;;2.10;;
19525;SDS011;9907;42.676;26.348;2022-10-18T11:15:44;1.67;;;1.57;;
19525;SDS011;9907;42.676;26.348;2022-10-18T11:20:50;1.70;;;1.60;;
19525;SDS011;9907;42.676;26.348;2022-10-18T11:23:17;2.00;;;1.50;;
19525;SDS011;9907;42.676;26.348;2022-10-18T11:31:21;2.43;;;2.00;;
19525;SDS011;9907;42.676;26.348;2022-10-18T11:34:20;3.80;;;1.70;;
19525;SDS011;9907;42.676;26.348;2022-10-18T11:51:42;4.20;;;2.60;;
19525;SDS011;9907;42.676;26.348;2022-10-18T11:56:58;2.57;;;1.50;;
19525;SDS011;9907;42.676;26.348;2022-10-18T11:59:59;1.73;;;1.53;;
19525;SDS011;9907;42.676;26.348;2022-10-18T12:05:10;3.20;;;1.60;;
19525;SDS011;9907;42.676;26.348;2022-10-18T12:07:38;2.53;;;1.90;;
19525;SDS011;9907;42.676;26.348;2022-10-18T12:10:14;3.60;;;3.30;;
19525;SDS011;9907;42.676;26.348;2022-10-18T12:13:02;7.40;;;5.97;;
19525;SDS011;9907;42.676;26.348;2022-10-18T12:15:32;5.70;;;3.57;;
19525;SDS011;9907;42.676;26.348;2022-10-18T12:18:05;3.57;;;2.80;;
19525;SDS011;9907;42.676;26.348;2022-10-18T12:20:38;4.40;;;2.60;;
19525;SDS011;9907;42.676;26.348;2022-10-18T12:23:18;5.23;;;1.97;;
19525;SDS011;9907;42.676;26.348;2022-10-18T12:25:55;2.90;;;2.10;;
19525;SDS011;9907;42.676;26.348;2022-10-18T12:31:19;2.53;;;2.23;;
19525;SDS011;9907;42.676;26.348;2022-10-18T12:33:53;4.10;;;2.40;;
19525;SDS011;9907;42.676;26.348;2022-10-18T12:38:51;2.90;;;2.33;;
19525;SDS011;9907;42.676;26.348;2022-10-18T12:41:24;3.37;;;2.07;;
19525;SDS011;9907;42.676;26.348;2022-10-18T12:44:00;2.43;;;1.80;;
19525;SDS011;9907;42.676;26.348;2022-10-18T12:46:51;3.40;;;2.30;;
19525;SDS011;9907;42.676;26.348;2022-10-18T12:49:23;2.10;;;1.77;;
19525;SDS011;9907;42.676;26.348;2022-10-18T12:51:54;3.37;;;1.73;;
19525;SDS011;9907;42.676;26.348;2022-10-18T12:54:27;3.30;;;1.90;;
19525;SDS011;9907;42.676;26.348;2022-10-18T12:56:55;2.73;;;1.77;;
19525;SDS011;9907;42.676;26.348;2022-10-18T13:04:37;1.93;;;1.40;;
19525;SDS011;9907;42.676;26.348;2022-10-18T13:09:38;4.13;;;2.60;;
19525;SDS011;9907;42.676;26.348;2022-10-18T13:25:34;3.87;;;2.43;;
19525;SDS011;9907;42.676;26.348;2022-10-18T13:33:34;3.03;;;1.80;;
19525;SDS011;9907;42.676;26.348;2022-10-18T13:36:18;2.60;;;1.67;;
19525;SDS011;9907;42.676;26.348;2022-10-18T13:48:44;4.53;;;1.87;;
19525;SDS011;9907;42.676;26.348;2022-10-18T14:05:01;2.90;;;1.80;;
19525;SDS011;9907;42.676;26.348;2022-10-18T14:07:57;2.20;;;1.60;;
19525;SDS011;9907;42.676;26.348;2022-10-18T14:13:05;4.27;;;1.83;;
19525;SDS011;9907;42.676;26.348;2022-10-18T14:15:33;1.30;;;1.20;;
19525;SDS011;9907;42.676;26.348;2022-10-18T14:20:39;3.37;;;1.97;;
19525;SDS011;9907;42.676;26.348;2022-10-18T14:23:16;4.77;;;2.40;;
19525;SDS011;9907;42.676;26.348;2022-10-18T14:25:44;3.90;;;2.20;;
19525;SDS011;9907;42.676;26.348;2022-10-18T14:28:20;5.80;;;1.70;;
19525;SDS011;9907;42.676;26.348;2022-10-18T14:33:31;2.20;;;1.70;;
19525;SDS011;9907;42.676;26.348;2022-10-18T14:36:07;2.30;;;2.10;;
19525;SDS011;9907;42.676;26.348;2022-10-18T14:38:37;1.60;;;1.50;;
19525;SDS011;9907;42.676;26.348;2022-10-18T14:49:25;3.83;;;1.97;;
19525;SDS011;9907;42.676;26.348;2022-10-18T14:51:51;3.70;;;1.87;;
19525;SDS011;9907;42.676;26.348;2022-10-18T14:54:23;1.80;;;1.53;;
19525;SDS011;9907;42.676;26.348;2022-10-18T14:56:54;2.23;;;1.93;;
19525;SDS011;9907;42.676;26.348;2022-10-18T14:59:24;2.60;;;2.37;;
19525;SDS011;9907;42.676;26.348;2022-10-18T15:02:05;3.07;;;2.03;;
19525;SDS011;9907;42.676;26.348;2022-10-18T15:04:45;2.30;;;2.10;;
19525;SDS011;9907;42.676;26.348;2022-10-18T15:07:18;2.30;;;2.10;;
19525;SDS011;9907;42.676;26.348;2022-10-18T15:09:44;2.37;;;2.03;;
19525;SDS011;9907;42.676;26.348;2022-10-18T15:12:12;4.33;;;2.10;;
19525;SDS011;9907;42.676;26.348;2022-10-18T15:14:40;5.73;;;2.23;;
19525;SDS011;9907;42.676;26.348;2022-10-18T15:17:14;8.40;;;2.40;;
19525;SDS011;9907;42.676;26.348;2022-10-18T15:19:55;5.03;;;1.97;;
19525;SDS011;9907;42.676;26.348;2022-10-18T15:22:26;3.53;;;2.27;;
19525;SDS011;9907;42.676;26.348;2022-10-18T15:27:42;7.63;;;2.80;;
19525;SDS011;9907;42.676;26.348;2022-10-18T15:30:15;4.57;;;2.93;;
19525;SDS011;9907;42.676;26.348;2022-10-18T15:32:47;7.37;;;3.50;;
19525;SDS011;9907;42.676;26.348;2022-10-18T15:35:21;4.47;;;2.43;;
19525;SDS011;9907;42.676;26.348;2022-10-18T15:37:49;4.60;;;2.10;;
19525;SDS011;9907;42.676;26.348;2022-10-18T15:40:24;4.03;;;2.77;;
19525;SDS011;9907;42.676;26.348;2022-10-18T15:42:59;9.87;;;4.37;;
19525;SDS011;9907;42.676;26.348;2022-10-18T15:45:31;9.83;;;4.33;;
19525;SDS011;9907;42.676;26.348;2022-10-18T15:50:37;9.83;;;5.00;;
19525;SDS011;9907;42.676;26.348;2022-10-18T15:55:48;3.87;;;2.80;;
19525;SDS011;9907;42.676;26.348;2022-10-18T15:58:39;4.67;;;2.90;;
19525;SDS011;9907;42.676;26.348;2022-10-18T16:01:48;4.83;;;2.50;;
19525;SDS011;9907;42.676;26.348;2022-10-18T16:04:25;10.53;;;7.23;;
19525;SDS011;9907;42.676;26.348;2022-10-18T16:06:52;14.07;;;10.67;;
19525;SDS011;9907;42.676;26.348;2022-10-18T16:09:20;8.37;;;5.37;;
19525;SDS011;9907;42.676;26.348;2022-10-18T16:11:47;5.70;;;3.80;;
19525;SDS011;9907;42.676;26.348;2022-10-18T16:14:19;8.90;;;4.90;;
19525;SDS011;9907;42.676;26.348;2022-10-18T16:16:45;7.37;;;4.00;;
19525;SDS011;9907;42.676;26.348;2022-10-18T16:19:15;7.63;;;4.33;;
19525;SDS011;9907;42.676;26.348;2022-10-18T16:21:46;10.00;;;4.77;;
19525;SDS011;9907;42.676;26.348;2022-10-18T16:24:12;7.17;;;4.70;;
19525;SDS011;9907;42.676;26.348;2022-10-18T16:26:56;9.43;;;5.60;;
19525;SDS011;9907;42.676;26.348;2022-10-18T16:29:22;6.27;;;3.50;;
19525;SDS011;9907;42.676;26.348;2022-10-18T16:31:52;5.30;;;3.60;;
19525;SDS011;9907;42.676;26.348;2022-10-18T16:34:21;6.97;;;3.70;;
19525;SDS011;9907;42.676;26.348;2022-10-18T16:36:47;7.60;;;4.80;;
19525;SDS011;9907;42.676;26.348;2022-10-18T16:39:13;6.03;;;4.03;;
19525;SDS011;9907;42.676;26.348;2022-10-18T16:41:41;6.50;;;4.40;;
19525;SDS011;9907;42.676;26.348;2022-10-18T16:44:07;6.50;;;4.43;;
19525;SDS011;9907;42.676;26.348;2022-10-18T16:46:33;5.97;;;3.83;;
19525;SDS011;9907;42.676;26.348;2022-10-18T16:48:59;6.97;;;4.10;;
19525;SDS011;9907;42.676;26.348;2022-10-18T16:51:25;7.30;;;3.23;;
19525;SDS011;9907;42.676;26.348;2022-10-18T16:53:51;4.73;;;2.90;;
19525;SDS011;9907;42.676;26.348;2022-10-18T16:56:19;3.97;;;3.00;;
19525;SDS011;9907;42.676;26.348;2022-10-18T16:58:46;6.57;;;3.10;;
19525;SDS011;9907;42.676;26.348;2022-10-18T17:01:13;6.43;;;3.53;;
19525;SDS011;9907;42.676;26.348;2022-10-18T17:03:40;5.93;;;3.53;;
19525;SDS011;9907;42.676;26.348;2022-10-18T17:06:18;4.07;;;2.97;;
19525;SDS011;9907;42.676;26.348;2022-10-18T17:08:47;4.97;;;3.50;;
19525;SDS011;9907;42.676;26.348;2022-10-18T17:11:14;6.10;;;3.10;;
19525;SDS011;9907;42.676;26.348;2022-10-18T17:13:41;4.57;;;2.70;;
19525;SDS011;9907;42.676;26.348;2022-10-18T17:16:12;4.03;;;3.10;;
19525;SDS011;9907;42.676;26.348;2022-10-18T17:18:42;4.30;;;2.97;;
19525;SDS011;9907;42.676;26.348;2022-10-18T17:21:08;6.30;;;4.37;;
19525;SDS011;9907;42.676;26.348;2022-10-18T17:23:33;7.23;;;3.83;;
19525;SDS011;9907;42.676;26.348;2022-10-18T17:25:59;4.37;;;3.20;;
19525;SDS011;9907;42.676;26.348;2022-10-18T17:28:24;5.67;;;2.80;;
19525;SDS011;9907;42.676;26.348;2022-10-18T17:30:50;6.17;;;3.13;;
19525;SDS011;9907;42.676;26.348;2022-10-18T17:33:16;6.40;;;3.60;;
19525;SDS011;9907;42.676;26.348;2022-10-18T17:35:41;4.93;;;3.30;;
19525;SDS011;9907;42.676;26.348;2022-10-18T17:38:08;5.37;;;3.83;;
19525;SDS011;9907;42.676;26.348;2022-10-18T17:40:33;4.80;;;3.40;;
19525;SDS011;9907;42.676;26.348;2022-10-18T17:42:59;5.10;;;3.20;;
19525;SDS011;9907;42.676;26.348;2022-10-18T17:45:25;6.50;;;3.07;;
19525;SDS011;9907;42.676;26.348;2022-10-18T17:47:51;6.80;;;3.77;;
19525;SDS011;9907;42.676;26.348;2022-10-18T17:50:17;8.40;;;4.73;;
19525;SDS011;9907;42.676;26.348;2022-10-18T17:52:43;11.10;;;4.97;;
19525;SDS011;9907;42.676;26.348;2022-10-18T17:55:11;7.90;;;5.57;;
19525;SDS011;9907;42.676;26.348;2022-10-18T17:57:38;5.27;;;3.57;;
19525;SDS011;9907;42.676;26.348;2022-10-18T18:00:04;7.60;;;4.60;;
19525;SDS011;9907;42.676;26.348;2022-10-18T18:02:32;7.40;;;4.40;;
19525;SDS011;9907;42.676;26.348;2022-10-18T18:04:58;6.67;;;3.50;;
19525;SDS011;9907;42.676;26.348;2022-10-18T18:07:23;3.20;;;2.90;;
19525;SDS011;9907;42.676;26.348;2022-10-18T18:09:49;5.13;;;3.73;;
19525;SDS011;9907;42.676;26.348;2022-10-18T18:12:15;4.97;;;3.80;;